createdAt,value
2018-06-15T08:33:42.968Z,19.50
2018-06-15T08:36:13.221Z,19.50
2018-06-15T08:38:43.819Z,19.60
2018-06-15T08:41:14.074Z,19.60
2018-06-15T08:43:45.025Z,19.70
2018-06-15T08:46:15.732Z,19.90
2018-06-15T08:48:46.167Z,19.90
2018-06-15T08:51:16.384Z,20.30
2018-06-15T08:53:47.118Z,20.80
2018-06-15T08:56:17.477Z,21.40
2018-06-15T08:58:47.927Z,21.80
2018-06-15T09:01:18.320Z,21.90
2018-06-15T09:03:48.815Z,21.40
2018-06-15T09:06:19.444Z,21.10
2018-06-15T09:08:49.696Z,20.80
2018-06-15T09:11:19.935Z,20.60
2018-06-15T09:13:50.296Z,20.50
2018-06-15T09:16:20.616Z,20.40
2018-06-15T09:18:51.597Z,20.50
2018-06-15T09:21:22.061Z,21.00
2018-06-15T09:23:52.694Z,21.40
2018-06-15T09:26:23.072Z,22.00
2018-06-15T09:28:53.535Z,22.30
2018-06-15T09:31:24.243Z,22.10
2018-06-15T09:33:54.614Z,21.90
2018-06-15T09:36:24.976Z,21.80
2018-06-15T09:38:55.697Z,21.90
2018-06-15T09:41:26.102Z,22.30
2018-06-15T09:43:56.781Z,22.60
2018-06-15T09:46:27.144Z,22.70
2018-06-15T09:48:57.767Z,21.80
2018-06-15T09:51:28.093Z,22.30
2018-06-15T09:53:58.641Z,22.60
2018-06-15T09:56:29.238Z,22.70
2018-06-15T09:58:59.833Z,22.50
2018-06-15T10:01:30.500Z,22.20
2018-06-15T10:04:01.091Z,22.50
2018-06-15T10:06:31.509Z,22.50
2018-06-15T10:09:02.349Z,22.50
2018-06-15T10:11:33.687Z,22.40
2018-06-15T10:14:04.170Z,22.20
2018-06-15T10:16:34.599Z,21.80
2018-06-15T10:19:05.309Z,21.80
2018-06-15T10:21:35.716Z,21.70
2018-06-15T10:24:05.947Z,21.80
2018-06-15T10:26:36.247Z,22.00
2018-06-15T10:29:06.518Z,22.30
2018-06-15T10:31:37.115Z,22.50
2018-06-15T10:34:07.948Z,23.00
2018-06-15T10:36:38.267Z,23.10
2018-06-15T10:39:10.163Z,23.50
2018-06-15T10:41:40.968Z,24.10
2018-06-15T10:44:11.552Z,24.30
2018-06-15T10:46:41.848Z,24.50
2018-06-15T10:49:12.660Z,23.70
2018-06-15T10:51:42.909Z,23.70
2018-06-15T10:54:13.123Z,24.20
2018-06-15T10:56:43.376Z,25.40
2018-06-15T10:59:13.611Z,25.90
2018-06-15T11:01:44.107Z,25.10
2018-06-15T11:04:14.757Z,24.10
2018-06-15T11:06:44.978Z,23.60
2018-06-15T11:09:15.585Z,23.30
2018-06-15T11:11:45.899Z,23.30
2018-06-15T11:14:16.166Z,23.70
2018-06-15T11:16:46.423Z,23.70
2018-06-15T11:19:16.879Z,23.90
2018-06-15T11:21:47.408Z,23.80
2018-06-15T11:24:17.647Z,24.00
2018-06-15T11:26:47.899Z,24.00
2018-06-15T11:29:18.115Z,24.50
2018-06-15T11:31:48.364Z,25.50
2018-06-15T11:34:18.619Z,25.80
2018-06-15T11:36:49.155Z,26.30
2018-06-15T11:39:19.552Z,26.90
2018-06-15T11:41:49.820Z,26.90
2018-06-15T11:44:21.432Z,27.00
2018-06-15T11:46:52.147Z,26.80
2018-06-15T11:49:25.626Z,26.70
2018-06-15T11:51:56.475Z,26.30
2018-06-15T11:54:26.907Z,26.20
2018-06-15T11:56:57.693Z,26.30
2018-06-15T11:59:28.110Z,26.40
2018-06-15T12:02:13.060Z,27.00
2018-06-15T12:07:27.815Z,28.00
2018-06-15T12:09:58.692Z,28.90
2018-06-15T12:12:29.498Z,29.40
2018-06-15T12:15:02.965Z,30.80
2018-06-15T12:17:33.533Z,31.50
2018-06-15T12:20:04.419Z,32.30
2018-06-15T12:22:35.129Z,31.80
2018-06-15T12:25:05.786Z,31.40
2018-06-15T12:27:36.335Z,31.10
2018-06-15T12:30:06.802Z,31.30
2018-06-15T12:32:37.450Z,31.10
2018-06-15T12:35:08.071Z,31.80
2018-06-15T12:37:38.374Z,31.90
2018-06-15T12:40:09.296Z,31.90
2018-06-15T12:42:39.651Z,32.70
2018-06-15T12:45:10.840Z,32.10
2018-06-15T12:47:41.435Z,30.50
2018-06-15T12:50:11.898Z,31.60
2018-06-15T12:52:42.385Z,32.70
2018-06-15T12:55:12.988Z,30.80
2018-06-15T12:57:43.281Z,30.20
2018-06-15T13:00:13.779Z,30.50
2018-06-15T13:02:44.583Z,30.50
2018-06-15T13:05:15.213Z,30.40
2018-06-15T13:10:16.175Z,29.30
2018-06-15T13:12:46.472Z,29.50
2018-06-15T13:15:16.760Z,29.70
2018-06-15T13:17:50.276Z,30.10
2018-06-15T13:20:20.999Z,29.10
2018-06-15T13:22:51.359Z,30.30
2018-06-15T13:25:22.081Z,29.90
2018-06-15T13:27:52.378Z,29.50
2018-06-15T13:30:22.664Z,29.00
2018-06-15T13:32:53.323Z,27.30
2018-06-15T13:35:24.178Z,26.60
2018-06-15T13:37:54.483Z,26.70
2018-06-15T13:40:24.855Z,27.10
2018-06-15T13:42:55.146Z,28.30
2018-06-15T13:45:25.507Z,29.40
2018-06-15T13:47:55.759Z,30.40
2018-06-15T13:50:27.212Z,31.00
2018-06-15T13:52:57.499Z,31.20
2018-06-15T13:55:27.904Z,31.20
2018-06-15T13:57:58.395Z,32.00
2018-06-15T14:00:28.841Z,30.70
2018-06-15T14:02:59.435Z,30.60
2018-06-15T14:05:30.451Z,30.30
2018-06-15T14:08:00.707Z,30.40
2018-06-15T14:10:31.263Z,30.80
2018-06-15T14:13:01.665Z,32.00
2018-06-15T14:15:32.071Z,32.50
2018-06-15T14:18:02.623Z,33.60
2018-06-15T14:20:33.388Z,34.20
2018-06-15T14:23:04.593Z,32.80
2018-06-15T14:25:35.068Z,33.10
2018-06-15T14:28:06.294Z,33.10
2018-06-15T14:30:36.722Z,33.90
2018-06-15T14:33:07.370Z,33.30
2018-06-15T14:35:38.593Z,31.40
2018-06-15T14:38:09.148Z,31.00
2018-06-15T14:40:39.787Z,31.10
2018-06-15T14:43:10.195Z,30.70
2018-06-15T14:45:40.940Z,29.80
2018-06-15T14:48:11.779Z,29.00
2018-06-15T14:50:43.095Z,28.00
2018-06-15T14:53:13.530Z,29.00
2018-06-15T14:55:44.716Z,29.30
2018-06-15T14:58:15.001Z,29.00
2018-06-15T15:00:45.247Z,28.80
2018-06-15T15:03:15.913Z,28.20
2018-06-15T15:05:46.147Z,27.90
2018-06-15T15:08:16.384Z,27.60
2018-06-15T15:10:46.635Z,28.60
2018-06-15T15:13:16.976Z,28.90
2018-06-15T15:15:47.307Z,31.10
2018-06-15T15:18:17.553Z,32.80
2018-06-15T15:20:48.473Z,33.30
2018-06-15T15:23:18.719Z,33.60
2018-06-15T15:25:49.655Z,34.60
2018-06-15T15:28:19.875Z,35.10
2018-06-15T15:30:50.291Z,33.30
2018-06-15T15:33:20.873Z,31.60
2018-06-15T15:35:51.139Z,30.30
2018-06-15T15:38:21.439Z,30.40
2018-06-15T15:40:51.636Z,31.70
2018-06-15T15:43:21.906Z,33.20
2018-06-15T15:45:52.180Z,33.50
2018-06-15T15:48:22.453Z,33.80
2018-06-15T15:50:52.707Z,34.70
2018-06-15T15:53:26.692Z,35.80
2018-06-15T15:55:57.455Z,35.00
2018-06-15T15:58:27.750Z,34.70
2018-06-15T16:00:58.005Z,33.60
2018-06-15T16:03:53.226Z,32.90
2018-06-15T16:06:24.308Z,33.40
2018-06-15T16:08:55.150Z,33.30
2018-06-15T16:11:25.951Z,33.90
2018-06-15T16:13:56.211Z,33.00
2018-06-15T16:16:26.449Z,33.20
2018-06-15T16:18:56.743Z,33.80
2018-06-15T16:21:27.291Z,33.00
2018-06-15T16:23:57.787Z,33.60
2018-06-15T16:26:31.720Z,33.70
2018-06-15T16:29:02.144Z,32.90
2018-06-15T16:31:32.535Z,30.90
2018-06-15T16:36:43.267Z,31.60
2018-06-15T16:39:14.723Z,32.80
2018-06-15T16:41:44.939Z,33.70
2018-06-15T16:44:15.491Z,34.60
2018-06-15T16:46:46.459Z,35.60
2018-06-15T16:49:16.989Z,34.70
2018-06-15T16:51:47.724Z,34.70
2018-06-15T16:54:17.954Z,35.50
2018-06-15T16:56:48.203Z,36.70
2018-06-15T16:59:18.523Z,37.20
2018-06-15T17:01:48.792Z,36.10
2018-06-15T17:04:19.135Z,34.80
2018-06-15T17:06:49.955Z,35.00
2018-06-15T17:09:20.242Z,34.60
2018-06-15T17:11:51.557Z,34.40
2018-06-15T17:14:21.788Z,34.10
2018-06-15T17:16:52.036Z,33.40
2018-06-15T17:19:22.313Z,32.60
2018-06-15T17:21:52.587Z,32.00
2018-06-15T17:24:22.969Z,31.20
2018-06-15T17:26:53.216Z,31.70
2018-06-15T17:29:23.631Z,32.60
2018-06-15T17:31:53.904Z,32.20
2018-06-15T17:34:26.334Z,31.90
2018-06-15T17:39:29.741Z,31.00
2018-06-15T17:42:00.115Z,30.80
2018-06-15T17:44:30.771Z,30.60
2018-06-15T17:47:03.535Z,31.20
2018-06-15T17:49:33.768Z,31.00
2018-06-15T17:52:04.482Z,31.70
2018-06-15T17:54:34.741Z,31.50
2018-06-15T17:57:05.204Z,32.20
2018-06-15T17:59:35.428Z,31.40
2018-06-15T18:02:05.660Z,31.50
2018-06-15T18:04:35.946Z,31.10
2018-06-15T18:07:06.383Z,30.60
2018-06-15T18:09:36.619Z,30.80
2018-06-15T18:12:06.943Z,30.60
2018-06-15T18:14:37.260Z,30.60
2018-06-15T18:17:07.552Z,30.10
2018-06-15T18:19:37.788Z,29.20
2018-06-15T18:22:08.465Z,29.10
2018-06-15T18:24:38.816Z,28.50
2018-06-15T18:27:09.211Z,27.90
2018-06-15T18:29:39.782Z,27.50
2018-06-15T18:32:10.426Z,26.90
2018-06-15T18:34:40.951Z,26.50
2018-06-15T18:37:11.495Z,26.00
2018-06-15T18:39:41.883Z,25.80
2018-06-15T18:42:12.884Z,25.60
2018-06-15T18:44:43.109Z,25.50
2018-06-15T18:47:13.603Z,25.30
2018-06-15T18:49:44.192Z,25.30
2018-06-15T18:52:14.434Z,25.30
2018-06-15T18:54:44.747Z,25.20
2018-06-15T18:57:15.439Z,25.00
2018-06-15T18:59:45.999Z,24.70
2018-06-15T19:04:46.772Z,24.10
2018-06-15T19:07:17.099Z,23.80
2018-06-15T19:09:47.619Z,23.70
2018-06-15T19:14:48.589Z,23.30
2018-06-15T19:17:18.895Z,23.10
2018-06-15T19:19:49.481Z,23.00
2018-06-15T19:22:19.791Z,23.00
2018-06-15T19:24:50.073Z,22.90
2018-06-15T19:27:20.755Z,22.70
2018-06-15T19:29:51.743Z,22.50
2018-06-15T19:32:22.077Z,22.40
2018-06-15T19:34:52.611Z,22.30
2018-06-15T19:37:23.047Z,22.30
2018-06-15T19:39:53.312Z,22.10
2018-06-15T19:42:23.909Z,22.00
2018-06-15T19:44:54.222Z,21.90
2018-06-15T19:47:24.876Z,21.80
2018-06-15T19:49:55.096Z,21.60
2018-06-15T19:52:25.959Z,21.50
2018-06-15T19:54:56.228Z,21.40
2018-06-15T19:58:00.107Z,21.40
2018-06-15T20:00:30.763Z,21.30
2018-06-15T20:03:01.175Z,21.20
2018-06-15T20:05:31.429Z,21.10
2018-06-15T20:08:02.284Z,21.00
2018-06-15T20:10:32.496Z,20.90
2018-06-15T20:13:02.751Z,20.80
2018-06-15T20:15:33.034Z,20.70
2018-06-15T20:18:03.427Z,20.60
2018-06-15T20:20:34.035Z,20.50
2018-06-15T20:23:04.311Z,20.40
2018-06-15T20:25:34.859Z,20.30
2018-06-15T20:28:05.141Z,20.20
2018-06-15T20:30:35.408Z,20.00
2018-06-15T20:33:05.847Z,20.00
2018-06-15T20:35:36.084Z,19.90
2018-06-15T20:38:07.015Z,19.80
2018-06-15T20:40:37.271Z,19.70
2018-06-15T20:43:07.490Z,19.60
2018-06-15T20:45:38.119Z,19.50
2018-06-15T20:48:08.850Z,19.50
2018-06-15T20:50:39.111Z,19.40
2018-06-15T20:53:10.081Z,19.30
2018-06-15T20:55:40.376Z,19.30
2018-06-15T20:58:10.891Z,19.20
2018-06-15T21:00:41.419Z,19.10
2018-06-15T21:03:11.840Z,19.10
2018-06-15T21:05:42.075Z,19.00
2018-06-15T21:08:12.891Z,18.80
2018-06-15T21:10:43.099Z,18.80
2018-06-15T21:13:13.645Z,18.80
2018-06-15T21:15:43.927Z,18.70
2018-06-15T21:18:14.397Z,18.70
2018-06-15T21:20:45.264Z,18.70
2018-06-15T21:23:15.846Z,18.70
2018-06-15T21:25:46.107Z,18.80
2018-06-15T21:28:16.939Z,18.80
2018-06-15T21:30:47.167Z,18.90
2018-06-15T21:33:17.854Z,19.00
2018-06-15T21:35:48.688Z,18.90
2018-06-15T21:38:19.177Z,18.90
2018-06-15T21:40:49.779Z,18.80
2018-06-15T21:43:20.600Z,18.90
2018-06-15T21:45:50.865Z,18.90
2018-06-15T21:48:21.168Z,18.90
2018-06-15T21:50:52.043Z,18.80
2018-06-15T21:53:22.263Z,18.80
2018-06-15T21:55:52.489Z,18.70
2018-06-15T21:58:23.077Z,18.70
2018-06-15T22:00:53.309Z,18.60
2018-06-15T22:03:23.727Z,18.60
2018-06-15T22:05:54.298Z,18.50
2018-06-15T22:08:25.172Z,18.50
2018-06-15T22:10:55.491Z,18.40
2018-06-15T22:13:26.063Z,18.30
2018-06-15T22:15:56.319Z,18.20
2018-06-15T22:18:26.547Z,18.10
2018-06-15T22:20:56.791Z,18.10
2018-06-15T22:23:27.791Z,18.10
2018-06-15T22:25:58.135Z,18.00
2018-06-15T22:28:28.534Z,18.00
2018-06-15T22:30:59.126Z,17.90
2018-06-15T22:33:29.347Z,18.00
2018-06-15T22:35:59.615Z,18.00
2018-06-15T22:38:29.919Z,18.00
2018-06-15T22:41:00.203Z,18.00
2018-06-15T22:43:31.070Z,18.00
2018-06-15T22:46:01.333Z,18.00
2018-06-15T22:48:31.589Z,18.00
2018-06-15T22:51:01.837Z,18.00
2018-06-15T22:53:32.054Z,17.90
2018-06-15T22:56:02.292Z,17.90
2018-06-15T22:58:32.818Z,17.80
2018-06-15T23:01:03.019Z,17.80
2018-06-15T23:03:33.564Z,17.80
2018-06-15T23:06:04.133Z,17.80
2018-06-15T23:08:34.513Z,17.80
2018-06-15T23:11:04.799Z,17.80
2018-06-15T23:13:35.615Z,17.80
2018-06-15T23:18:36.547Z,17.80
2018-06-15T23:21:07.154Z,17.70
2018-06-15T23:23:37.410Z,17.70
2018-06-15T23:26:07.897Z,17.70
2018-06-15T23:28:38.108Z,17.80
2018-06-15T23:31:08.486Z,17.70
2018-06-15T23:36:09.335Z,17.60
2018-06-15T23:38:39.623Z,17.50
2018-06-15T23:41:10.226Z,17.50
2018-06-15T23:43:40.843Z,17.50
2018-06-15T23:46:11.084Z,17.50
2018-06-15T23:48:41.363Z,17.50
2018-06-15T23:51:11.582Z,17.50
2018-06-15T23:53:42.189Z,17.60
2018-06-15T23:56:13.119Z,17.70
2018-06-15T23:58:43.397Z,17.70
